Alstead Center, New Hampshire
Current Conditions -  °F | °C
As of 2:15 PM on Friday 28 Nov 2014 (Local Time) from KEEN Reporting Station
Scattered Clouds Scattered Clouds  
Wind Chill: 23°   Ceiling: Unl
Heat Index: 30°   Visibility: 10mi
Dew Point: 16°   Wind: 7mph
Humidity: 55%   Direction: 310°NW
Pressure: 30.07"   Gusts: 18mph
Location:  43.1141°N, 72.3097°W
Report Text: KEEN 281915Z AUTO 31006G16KT 10SM FEW047 SCT060 M01/M09 A3007 RMK AO1 P0001
Loading
Personal Weather Stations






























Interactive Weather Map New forecast layout! Learn more

10-Day Weather Forecast

Advertisements
Track Severe Weather on mobile